createdAt,value
2019-03-29T00:03:22.781Z,99.90
2019-03-29T00:06:46.567Z,99.90
2019-03-29T00:10:10.532Z,99.90
2019-03-29T00:13:43.310Z,99.90
2019-03-29T00:17:07.098Z,99.90
2019-03-29T00:20:30.946Z,99.90
2019-03-29T00:24:06.240Z,99.90
2019-03-29T00:27:20.240Z,99.90
2019-03-29T00:30:44.142Z,99.90
2019-03-29T00:34:08.153Z,99.90
2019-03-29T00:37:32.321Z,99.90
2019-03-29T00:40:56.221Z,99.90
2019-03-29T00:44:20.039Z,99.90
2019-03-29T00:47:44.142Z,99.90
2019-03-29T00:51:08.008Z,99.90
2019-03-29T00:54:31.795Z,99.90
2019-03-29T00:57:56.202Z,99.90
2019-03-29T01:01:20.843Z,99.90
2019-03-29T01:04:44.610Z,99.90
2019-03-29T01:08:10.387Z,99.90
2019-03-29T01:11:34.278Z,99.90
2019-03-29T01:14:58.245Z,99.90
2019-03-29T01:18:21.992Z,99.90
2019-03-29T01:21:45.875Z,99.90
2019-03-29T01:25:09.843Z,99.90
2019-03-29T01:28:33.653Z,99.90
2019-03-29T01:31:57.346Z,99.90
2019-03-29T01:35:22.000Z,99.90
2019-03-29T01:38:45.782Z,99.90
2019-03-29T01:42:09.504Z,99.90
2019-03-29T01:45:33.385Z,99.90
2019-03-29T01:48:57.194Z,99.90
2019-03-29T01:52:20.967Z,99.90
2019-03-29T01:55:44.732Z,99.90
2019-03-29T01:59:08.474Z,99.90
2019-03-29T02:02:32.386Z,99.90
2019-03-29T02:05:56.145Z,99.90
2019-03-29T02:09:19.916Z,99.90
2019-03-29T02:12:43.876Z,99.90
2019-03-29T02:16:07.553Z,99.90
2019-03-29T02:19:34.262Z,99.90
2019-03-29T02:22:58.125Z,99.90
2019-03-29T02:26:22.046Z,99.90
2019-03-29T02:29:45.804Z,99.90
2019-03-29T02:33:09.679Z,99.90
2019-03-29T02:36:34.486Z,99.90
2019-03-29T02:39:58.866Z,99.90
2019-03-29T02:43:22.612Z,99.90
2019-03-29T02:46:46.735Z,99.90
2019-03-29T02:50:10.932Z,99.90
2019-03-29T02:53:34.925Z,99.90
2019-03-29T02:56:58.752Z,99.90
2019-03-29T03:00:22.576Z,99.90
2019-03-29T03:03:49.332Z,99.90
2019-03-29T03:07:13.239Z,99.90
2019-03-29T03:10:37.167Z,99.90
2019-03-29T03:14:01.059Z,99.90
2019-03-29T03:17:24.937Z,99.90
2019-03-29T03:20:48.959Z,99.90
2019-03-29T03:24:12.710Z,99.90
2019-03-29T03:27:37.014Z,99.90
2019-03-29T03:31:00.817Z,99.90
2019-03-29T03:34:24.871Z,99.90
2019-03-29T03:37:48.732Z,99.90
2019-03-29T03:41:12.645Z,99.90
2019-03-29T03:44:36.522Z,99.90
2019-03-29T03:48:00.199Z,99.90
2019-03-29T03:51:23.954Z,99.90
2019-03-29T03:54:47.842Z,99.90
2019-03-29T03:58:12.745Z,99.90
2019-03-29T04:01:36.492Z,99.90
2019-03-29T04:05:00.750Z,99.90
2019-03-29T04:08:25.010Z,99.90
2019-03-29T04:11:48.785Z,99.90
2019-03-29T04:15:12.676Z,99.90
2019-03-29T04:18:36.453Z,99.90
2019-03-29T04:22:00.301Z,99.90
2019-03-29T04:25:24.259Z,99.90
2019-03-29T04:29:03.327Z,99.90
2019-03-29T04:32:13.854Z,99.90
2019-03-29T04:35:38.101Z,99.90
2019-03-29T04:39:01.901Z,99.90
2019-03-29T04:42:25.742Z,99.90
2019-03-29T04:45:49.589Z,99.90
2019-03-29T04:49:13.439Z,99.90
2019-03-29T04:52:37.309Z,99.90
2019-03-29T04:56:01.084Z,99.90
2019-03-29T04:59:24.938Z,99.90
2019-03-29T05:02:48.783Z,99.90
2019-03-29T05:06:12.711Z,99.90
2019-03-29T05:09:36.568Z,99.90
2019-03-29T05:13:00.447Z,99.90
2019-03-29T05:16:24.373Z,99.90
2019-03-29T05:19:48.255Z,99.90
2019-03-29T05:23:12.179Z,99.90
2019-03-29T05:26:35.970Z,99.90
2019-03-29T05:30:00.095Z,99.90
2019-03-29T05:33:24.487Z,99.90
2019-03-29T05:36:48.301Z,99.90
2019-03-29T05:40:12.324Z,99.90
2019-03-29T05:43:35.982Z,99.90
2019-03-29T05:47:00.075Z,99.90
2019-03-29T05:50:23.886Z,99.90
2019-03-29T05:53:47.685Z,99.90
2019-03-29T05:57:11.848Z,99.90
2019-03-29T06:00:36.358Z,99.90
2019-03-29T06:04:00.159Z,99.90
2019-03-29T06:07:24.300Z,99.90
2019-03-29T06:10:49.487Z,99.90
2019-03-29T06:14:13.604Z,99.90
2019-03-29T06:17:48.005Z,99.90
2019-03-29T06:21:03.090Z,99.90
2019-03-29T06:24:26.972Z,99.90
2019-03-29T06:27:50.811Z,99.90
2019-03-29T06:31:14.541Z,99.90
2019-03-29T06:34:43.978Z,99.90
2019-03-29T06:38:10.215Z,99.90
2019-03-29T06:41:34.097Z,99.90
2019-03-29T06:44:58.114Z,94.90
2019-03-29T06:48:22.019Z,88.00
2019-03-29T06:51:46.623Z,81.20
2019-03-29T06:55:10.931Z,72.60
2019-03-29T06:58:35.026Z,71.00
2019-03-29T07:01:59.396Z,72.90
2019-03-29T07:05:23.820Z,71.50
2019-03-29T07:08:47.596Z,69.60
2019-03-29T07:12:11.740Z,63.40
2019-03-29T07:15:35.634Z,60.70
2019-03-29T07:18:59.500Z,55.70
2019-03-29T07:22:23.387Z,54.50
2019-03-29T07:25:47.244Z,53.70
2019-03-29T07:29:11.186Z,54.20
2019-03-29T07:32:35.023Z,52.10
2019-03-29T07:35:59.129Z,50.30
2019-03-29T07:39:23.297Z,50.10
2019-03-29T07:42:47.084Z,50.00
2019-03-29T07:46:10.943Z,49.80
2019-03-29T07:49:34.843Z,50.70
2019-03-29T07:52:58.749Z,52.40
2019-03-29T07:56:22.571Z,57.00
2019-03-29T07:59:46.470Z,60.60
2019-03-29T08:03:10.255Z,66.30
2019-03-29T08:06:34.176Z,73.60
2019-03-29T08:09:58.211Z,78.00
2019-03-29T08:13:22.029Z,88.70
2019-03-29T08:16:46.210Z,95.10
2019-03-29T08:20:37.549Z,97.30
2019-03-29T08:23:35.512Z,99.90
2019-03-29T08:26:59.383Z,99.90
2019-03-29T08:30:23.159Z,99.90
2019-03-29T08:33:47.578Z,99.90
2019-03-29T08:37:11.338Z,99.10
2019-03-29T08:40:35.961Z,99.90
2019-03-29T08:43:59.835Z,99.90
2019-03-29T08:47:23.684Z,99.90
2019-03-29T08:50:47.490Z,99.90
2019-03-29T08:54:11.433Z,99.90
2019-03-29T08:57:35.398Z,99.80
2019-03-29T09:00:59.319Z,99.90
2019-03-29T09:04:23.462Z,99.90
2019-03-29T09:07:47.489Z,99.90
2019-03-29T09:11:11.359Z,99.90
2019-03-29T09:14:35.149Z,99.90
2019-03-29T09:17:59.929Z,99.90
2019-03-29T09:21:24.079Z,99.90
2019-03-29T09:24:47.798Z,99.90
2019-03-29T09:28:11.574Z,96.50
2019-03-29T09:31:35.363Z,90.70
2019-03-29T09:34:59.391Z,86.80
2019-03-29T09:38:23.273Z,78.30
2019-03-29T09:41:47.031Z,68.20
2019-03-29T09:45:10.979Z,69.10
2019-03-29T09:48:34.899Z,60.10
2019-03-29T09:51:58.785Z,58.00
2019-03-29T09:55:22.624Z,52.40
2019-03-29T09:58:46.612Z,48.70
2019-03-29T10:02:10.499Z,44.90
2019-03-29T10:05:34.467Z,46.00
2019-03-29T10:08:58.262Z,47.00
2019-03-29T10:12:22.091Z,46.30
2019-03-29T10:15:45.878Z,49.10
2019-03-29T10:19:10.218Z,52.60
2019-03-29T10:22:34.082Z,55.30
2019-03-29T10:25:58.746Z,56.80
2019-03-29T10:29:22.841Z,58.10
2019-03-29T10:32:46.606Z,58.00
2019-03-29T10:36:10.604Z,54.50
2019-03-29T10:39:35.837Z,51.00
2019-03-29T10:42:59.820Z,45.10
2019-03-29T10:46:23.724Z,44.30
2019-03-29T10:49:47.596Z,44.50
2019-03-29T10:53:11.578Z,47.40
2019-03-29T10:56:35.682Z,48.10
2019-03-29T10:59:59.633Z,49.30
2019-03-29T11:03:23.516Z,50.60
2019-03-29T11:06:47.278Z,51.70
2019-03-29T11:10:16.845Z,49.20
2019-03-29T11:13:41.163Z,51.30
2019-03-29T11:17:05.355Z,48.10
2019-03-29T11:20:29.343Z,48.80
2019-03-29T11:23:53.281Z,51.80
2019-03-29T11:27:17.238Z,53.10
2019-03-29T11:30:43.099Z,56.50
2019-03-29T11:34:06.638Z,59.40
2019-03-29T11:37:30.578Z,56.50
2019-03-29T11:40:54.540Z,50.90
2019-03-29T11:44:18.357Z,50.10
2019-03-29T11:47:42.307Z,49.50
2019-03-29T11:51:18.658Z,47.30
2019-03-29T11:54:31.879Z,46.00
2019-03-29T11:57:56.096Z,50.70
2019-03-29T12:01:20.034Z,51.00
2019-03-29T12:04:43.957Z,54.80
2019-03-29T12:08:08.047Z,50.40
2019-03-29T12:11:32.234Z,47.40
2019-03-29T12:14:56.063Z,50.60
2019-03-29T12:18:19.811Z,53.10
2019-03-29T12:21:43.605Z,53.00
2019-03-29T12:25:07.698Z,55.90
2019-03-29T12:28:31.537Z,57.10
2019-03-29T12:31:55.274Z,60.20
2019-03-29T12:35:19.701Z,64.10
2019-03-29T12:38:43.455Z,64.20
2019-03-29T12:42:07.244Z,60.00
2019-03-29T12:45:31.124Z,57.70
2019-03-29T12:48:55.094Z,57.10
2019-03-29T12:52:19.014Z,55.70
2019-03-29T12:55:42.997Z,56.50
2019-03-29T12:59:06.871Z,57.00
2019-03-29T13:02:30.607Z,57.70
2019-03-29T13:05:54.845Z,61.50
2019-03-29T13:09:18.674Z,61.80
2019-03-29T13:12:42.531Z,68.00
2019-03-29T13:16:06.382Z,70.20
2019-03-29T13:19:30.328Z,69.30
2019-03-29T13:22:54.118Z,71.60
2019-03-29T13:26:18.027Z,71.50
2019-03-29T13:29:41.990Z,74.20
2019-03-29T13:33:05.992Z,75.20
2019-03-29T13:36:29.852Z,79.30
2019-03-29T13:39:54.675Z,81.70
2019-03-29T13:43:18.559Z,86.60
2019-03-29T13:46:42.273Z,88.20
2019-03-29T13:50:08.841Z,83.60
2019-03-29T13:53:32.582Z,86.20
2019-03-29T13:56:56.433Z,88.30
2019-03-29T14:00:22.358Z,89.70
2019-03-29T14:03:46.201Z,90.30
2019-03-29T14:07:10.126Z,85.60
2019-03-29T14:10:33.873Z,81.90
2019-03-29T14:13:57.779Z,78.70
2019-03-29T14:17:21.603Z,81.80
2019-03-29T14:20:45.541Z,84.50
2019-03-29T14:24:09.403Z,87.20
2019-03-29T14:27:33.203Z,86.70
2019-03-29T14:30:57.041Z,86.00
2019-03-29T14:34:21.486Z,80.80
2019-03-29T14:37:45.314Z,77.10
2019-03-29T14:41:09.203Z,79.70
2019-03-29T14:44:32.932Z,81.10
2019-03-29T14:47:57.090Z,87.10
2019-03-29T14:51:21.158Z,84.50
2019-03-29T14:54:45.070Z,89.30
2019-03-29T14:58:09.054Z,91.90
2019-03-29T15:01:33.058Z,93.60
2019-03-29T15:04:56.893Z,95.70
2019-03-29T15:08:20.963Z,98.50
2019-03-29T15:11:45.087Z,99.90
2019-03-29T15:15:09.137Z,99.90
2019-03-29T15:18:33.053Z,99.90
2019-03-29T15:21:57.071Z,99.90
2019-03-29T15:25:23.064Z,99.90
2019-03-29T15:28:46.957Z,99.90
2019-03-29T15:32:10.905Z,99.90
2019-03-29T15:35:34.764Z,99.90
2019-03-29T15:38:58.673Z,99.90
2019-03-29T15:42:22.455Z,99.90
2019-03-29T15:45:47.285Z,99.90
2019-03-29T15:49:11.131Z,99.90
2019-03-29T15:52:35.398Z,99.90
2019-03-29T15:55:59.533Z,99.90
2019-03-29T15:59:23.623Z,99.90
2019-03-29T16:02:47.483Z,99.90
2019-03-29T16:06:11.789Z,99.90
2019-03-29T16:09:35.669Z,99.90
2019-03-29T16:13:00.283Z,99.90
2019-03-29T16:16:24.369Z,99.90
2019-03-29T16:19:48.828Z,99.90
2019-03-29T16:23:12.684Z,99.90
2019-03-29T16:26:36.611Z,99.90
2019-03-29T16:30:00.474Z,99.90
2019-03-29T16:33:24.312Z,99.90
2019-03-29T16:36:48.173Z,99.90
2019-03-29T16:40:13.985Z,99.90
2019-03-29T16:43:37.747Z,99.90
2019-03-29T16:47:02.240Z,99.90
2019-03-29T16:50:26.227Z,99.90
2019-03-29T16:53:50.337Z,99.90
2019-03-29T16:57:15.073Z,99.90
2019-03-29T17:00:38.982Z,99.90
2019-03-29T17:04:02.963Z,99.90
2019-03-29T17:07:26.850Z,99.90
2019-03-29T17:10:59.658Z,99.90
2019-03-29T17:14:23.576Z,99.90
2019-03-29T17:17:47.388Z,99.90
2019-03-29T17:21:11.767Z,99.90
2019-03-29T17:24:36.206Z,99.90
2019-03-29T17:28:01.203Z,99.90
2019-03-29T17:31:25.032Z,99.90
2019-03-29T17:34:49.069Z,99.90
2019-03-29T17:38:13.178Z,99.90
2019-03-29T17:41:37.020Z,99.90
2019-03-29T17:45:01.136Z,99.90
2019-03-29T17:48:25.026Z,99.90
2019-03-29T17:51:49.834Z,99.90
2019-03-29T17:55:13.707Z,99.90
2019-03-29T17:58:37.674Z,99.90
2019-03-29T18:02:09.169Z,99.90
2019-03-29T18:05:26.985Z,99.90
2019-03-29T18:08:50.919Z,99.90
2019-03-29T18:12:14.823Z,99.90
2019-03-29T18:15:39.030Z,99.90
2019-03-29T18:19:03.197Z,99.90
2019-03-29T18:22:27.211Z,99.90
2019-03-29T18:25:51.401Z,99.90
2019-03-29T18:29:16.002Z,99.90
2019-03-29T18:32:40.102Z,99.90
2019-03-29T18:36:06.105Z,99.90
2019-03-29T18:39:30.862Z,99.90
2019-03-29T18:42:56.586Z,99.90
2019-03-29T18:46:20.373Z,99.90
2019-03-29T18:49:44.258Z,99.90
2019-03-29T18:53:08.349Z,99.90
2019-03-29T18:56:35.436Z,99.90
2019-03-29T18:59:59.306Z,99.90
2019-03-29T19:03:23.299Z,99.90
2019-03-29T19:06:47.175Z,99.90
2019-03-29T19:10:10.884Z,99.90
2019-03-29T19:13:34.802Z,99.90
2019-03-29T19:16:59.822Z,99.90
2019-03-29T19:20:27.875Z,99.90
2019-03-29T19:23:49.195Z,99.90
2019-03-29T19:27:13.092Z,99.90
2019-03-29T19:30:36.834Z,99.90
2019-03-29T19:34:00.741Z,99.90
2019-03-29T19:37:24.504Z,99.90
2019-03-29T19:40:48.400Z,99.90
2019-03-29T19:44:13.804Z,99.90
2019-03-29T19:47:38.366Z,99.90
2019-03-29T19:51:02.157Z,99.90
2019-03-29T19:54:26.058Z,99.90
2019-03-29T19:57:49.895Z,99.90
2019-03-29T20:01:13.699Z,99.90
2019-03-29T20:04:37.570Z,99.90
2019-03-29T20:08:01.401Z,99.90
2019-03-29T20:11:27.261Z,99.90
2019-03-29T20:14:51.092Z,99.90
2019-03-29T20:18:14.996Z,99.90
2019-03-29T20:21:40.906Z,99.90
2019-03-29T20:25:05.754Z,99.90
2019-03-29T20:28:29.638Z,99.90
2019-03-29T20:32:02.649Z,99.90
2019-03-29T20:35:26.512Z,99.90
2019-03-29T20:38:50.383Z,99.90
2019-03-29T20:42:14.324Z,99.90
2019-03-29T20:45:38.355Z,99.90
2019-03-29T20:49:02.234Z,99.90
2019-03-29T20:52:26.019Z,99.90
2019-03-29T20:55:51.813Z,99.90
2019-03-29T20:59:15.718Z,99.90
2019-03-29T21:02:39.627Z,99.90
2019-03-29T21:06:03.906Z,99.90
2019-03-29T21:09:27.779Z,99.90
2019-03-29T21:12:51.638Z,99.90
2019-03-29T21:16:15.406Z,99.90
2019-03-29T21:19:39.387Z,99.90
2019-03-29T21:23:03.294Z,99.90
2019-03-29T21:26:27.079Z,99.90
2019-03-29T21:29:50.878Z,99.90
2019-03-29T21:33:17.811Z,99.90
2019-03-29T21:36:43.753Z,99.90
2019-03-29T21:40:08.470Z,99.90
2019-03-29T21:43:32.223Z,99.90
2019-03-29T21:46:56.295Z,99.90
2019-03-29T21:50:20.077Z,99.90
2019-03-29T21:53:44.086Z,99.90
2019-03-29T21:57:12.036Z,99.90
2019-03-29T22:00:35.776Z,99.90
2019-03-29T22:04:00.035Z,99.90
2019-03-29T22:07:23.890Z,99.90
2019-03-29T22:10:47.756Z,99.90
2019-03-29T22:14:11.597Z,99.90
2019-03-29T22:17:35.421Z,99.90
2019-03-29T22:21:05.196Z,99.90
2019-03-29T22:24:29.008Z,99.90
2019-03-29T22:27:52.785Z,99.90
2019-03-29T22:31:16.699Z,99.90
2019-03-29T22:34:40.523Z,99.90
2019-03-29T22:38:04.401Z,99.90
2019-03-29T22:41:30.244Z,99.90
2019-03-29T22:44:54.178Z,99.90
2019-03-29T22:48:18.085Z,99.90
2019-03-29T22:51:41.890Z,99.90
2019-03-29T22:55:08.559Z,99.90
2019-03-29T22:58:32.423Z,99.90
2019-03-29T23:01:56.221Z,99.90
2019-03-29T23:05:20.037Z,99.90
2019-03-29T23:08:43.865Z,99.90
2019-03-29T23:12:07.681Z,99.90
2019-03-29T23:15:31.516Z,99.90
2019-03-29T23:19:06.255Z,99.90
2019-03-29T23:22:29.279Z,99.90
2019-03-29T23:25:53.104Z,99.90
2019-03-29T23:29:16.936Z,99.90
2019-03-29T23:32:42.639Z,99.90
2019-03-29T23:36:06.409Z,99.90
2019-03-29T23:39:30.248Z,99.90
2019-03-29T23:42:54.120Z,99.90
2019-03-29T23:46:18.316Z,99.90
2019-03-29T23:49:42.195Z,99.90
2019-03-29T23:53:05.998Z,99.90
2019-03-29T23:56:30.567Z,99.90
2019-03-29T23:59:54.446Z,99.90
